createdAt,value
2019-04-07T00:02:19.898Z,94779.98
2019-04-07T00:04:49.474Z,94770.44
2019-04-07T00:07:18.981Z,94774.69
2019-04-07T00:09:49.164Z,94777.94
2019-04-07T00:12:18.853Z,94785.46
2019-04-07T00:14:48.700Z,94780.08
2019-04-07T00:17:18.239Z,94777.29
2019-04-07T00:19:48.071Z,94780.98
2019-04-07T00:22:18.206Z,94784.34
2019-04-07T00:24:47.952Z,94785.05
2019-04-07T00:27:17.877Z,94776.72
2019-04-07T00:29:47.230Z,94772.59
2019-04-07T00:32:16.607Z,94774.50
2019-04-07T00:34:46.026Z,94771.36
2019-04-07T00:37:15.715Z,94760.91
2019-04-07T00:39:45.197Z,94774.05
2019-04-07T00:42:14.731Z,94771.36
2019-04-07T00:44:44.318Z,94763.28
2019-04-07T00:47:14.033Z,94771.02
2019-04-07T00:49:43.518Z,94768.43
2019-04-07T00:52:14.168Z,94760.12
2019-04-07T00:54:43.563Z,94755.52
2019-04-07T00:57:13.066Z,94760.92
2019-04-07T00:59:43.034Z,94750.59
2019-04-07T01:02:13.154Z,94762.27
2019-04-07T01:04:43.005Z,94754.17
2019-04-07T01:07:12.962Z,94755.55
2019-04-07T01:09:42.339Z,94753.98
2019-04-07T01:12:11.766Z,94753.30
2019-04-07T01:14:41.731Z,94751.72
2019-04-07T01:17:11.534Z,94749.03
2019-04-07T01:19:41.104Z,94741.53
2019-04-07T01:22:11.121Z,94748.27
2019-04-07T01:24:40.717Z,94743.20
2019-04-07T01:27:10.465Z,94749.14
2019-04-07T01:29:40.015Z,94740.63
2019-04-07T01:32:09.422Z,94734.48
2019-04-07T01:34:39.408Z,94731.31
2019-04-07T01:37:08.886Z,94735.02
2019-04-07T01:39:38.310Z,94729.98
2019-04-07T01:42:30.172Z,94726.30
2019-04-07T01:45:36.997Z,94717.55
2019-04-07T01:48:14.900Z,94722.48
2019-04-07T01:51:00.498Z,94713.73
2019-04-07T01:53:49.873Z,94714.19
2019-04-07T01:56:38.439Z,94719.57
2019-04-07T01:59:26.596Z,94715.20
2019-04-07T02:02:09.331Z,94711.16
2019-04-07T02:04:50.225Z,94710.92
2019-04-07T02:07:29.607Z,94712.83
2019-04-07T02:10:20.925Z,94583.40
2019-04-07T02:13:18.701Z,94714.62
2019-04-07T02:16:13.322Z,94706.21
2019-04-07T02:19:10.904Z,94708.70
2019-04-07T02:22:08.481Z,94699.83
2019-04-07T02:24:48.867Z,94699.59
2019-04-07T02:27:33.404Z,94700.62
2019-04-07T02:30:24.956Z,94702.73
2019-04-07T02:33:02.154Z,94707.00
2019-04-07T02:35:40.404Z,94705.11
2019-04-07T02:38:21.616Z,94704.66
2019-04-07T02:41:19.870Z,94700.94
2019-04-07T02:44:09.298Z,94707.67
2019-04-07T02:46:48.459Z,94704.88
2019-04-07T02:49:32.265Z,94706.34
2019-04-07T02:52:26.958Z,94704.33
2019-04-07T02:55:15.762Z,94699.70
2019-04-07T02:58:01.849Z,94697.60
2019-04-07T03:00:40.200Z,94700.84
2019-04-07T03:03:39.166Z,94691.20
2019-04-07T03:06:42.930Z,94696.70
2019-04-07T03:09:21.835Z,94693.67
2019-04-07T03:12:16.296Z,94690.98
2019-04-07T03:15:03.423Z,94693.55
2019-04-07T03:17:37.836Z,94686.92
2019-04-07T03:20:24.960Z,94683.59
2019-04-07T03:23:16.712Z,94694.89
2019-04-07T03:26:00.711Z,94682.00
2019-04-07T03:28:52.617Z,94686.04
2019-04-07T03:31:53.591Z,94684.69
2019-04-07T03:34:42.288Z,94503.60
2019-04-07T03:37:34.354Z,94682.22
2019-04-07T03:40:30.609Z,94684.67
2019-04-07T03:43:19.656Z,94686.16
2019-04-07T03:46:06.114Z,94684.02
2019-04-07T03:48:42.416Z,94687.70
2019-04-07T03:51:33.048Z,94687.16
2019-04-07T03:54:24.225Z,94688.26
2019-04-07T03:57:11.450Z,94683.56
2019-04-07T04:00:06.932Z,94683.80
2019-04-07T04:03:07.367Z,94687.50
2019-04-07T04:05:47.704Z,94698.25
2019-04-07T04:08:36.602Z,94690.73
2019-04-07T04:11:32.285Z,94690.16
2019-04-07T04:14:12.067Z,94682.65
2019-04-07T04:16:45.712Z,94683.89
2019-04-07T04:19:15.176Z,94677.73
2019-04-07T04:21:45.532Z,94684.20
2019-04-07T04:24:15.052Z,94683.55
2019-04-07T04:26:44.481Z,94683.87
2019-04-07T04:29:13.845Z,94679.52
2019-04-07T04:31:43.501Z,94679.52
2019-04-07T04:34:13.687Z,94687.58
2019-04-07T04:36:44.595Z,94680.20
2019-04-07T04:39:18.211Z,94678.06
2019-04-07T04:41:45.292Z,94679.52
2019-04-07T04:44:14.700Z,94688.27
2019-04-07T04:46:44.123Z,94684.02
2019-04-07T04:49:13.619Z,94685.15
2019-04-07T04:51:43.016Z,94681.11
2019-04-07T04:54:12.630Z,94681.98
2019-04-07T04:56:42.467Z,94688.94
2019-04-07T04:59:12.942Z,94700.94
2019-04-07T05:01:42.392Z,94692.52
2019-04-07T05:04:12.626Z,94691.17
2019-04-07T05:06:42.331Z,94697.69
2019-04-07T05:09:12.317Z,94697.13
2019-04-07T05:11:41.783Z,94705.09
2019-04-07T05:14:11.435Z,94700.95
2019-04-07T05:16:40.847Z,94710.25
2019-04-07T05:19:11.807Z,94707.23
2019-04-07T05:21:41.555Z,94711.39
2019-04-07T05:24:11.506Z,94704.22
2019-04-07T05:26:41.018Z,94708.91
2019-04-07T05:29:10.456Z,94708.80
2019-04-07T05:31:40.172Z,94707.78
2019-04-07T05:34:09.572Z,94712.51
2019-04-07T05:36:39.005Z,94711.92
2019-04-07T05:39:10.188Z,94708.91
2019-04-07T05:41:39.998Z,94705.22
2019-04-07T05:44:09.432Z,94706.55
2019-04-07T05:46:42.323Z,94701.95
2019-04-07T05:49:10.939Z,94708.11
2019-04-07T05:51:40.379Z,94710.80
2019-04-07T05:54:12.217Z,94708.70
2019-04-07T05:56:41.295Z,94710.04
2019-04-07T05:59:13.082Z,94712.84
2019-04-07T06:01:41.917Z,94715.86
2019-04-07T06:04:16.879Z,94714.19
2019-04-07T06:06:42.436Z,94711.71
2019-04-07T06:09:11.873Z,94716.61
2019-04-07T06:11:41.262Z,94714.25
2019-04-07T06:14:11.525Z,94710.19
2019-04-07T06:16:41.779Z,94705.48
2019-04-07T06:19:11.693Z,94708.41
2019-04-07T06:21:41.634Z,94712.97
2019-04-07T06:24:11.326Z,94711.92
2019-04-07T06:26:42.157Z,94714.38
2019-04-07T06:29:11.879Z,94712.91
2019-04-07T06:31:41.543Z,94712.78
2019-04-07T06:34:12.000Z,94722.17
2019-04-07T06:36:41.635Z,94725.77
2019-04-07T06:39:11.067Z,94715.91
2019-04-07T06:41:40.495Z,94724.51
2019-04-07T06:44:13.828Z,94722.23
2019-04-07T06:47:02.776Z,94717.39
2019-04-07T06:49:49.110Z,94722.93
2019-04-07T06:52:28.541Z,94726.30
2019-04-07T06:55:06.740Z,94726.62
2019-04-07T06:57:49.341Z,94728.74
2019-04-07T07:00:31.699Z,94725.85
2019-04-07T07:03:33.650Z,94721.47
2019-04-07T07:06:22.946Z,94720.28
2019-04-07T07:09:20.451Z,94713.98
2019-04-07T07:12:18.686Z,94712.66
2019-04-07T07:14:53.863Z,94711.04
2019-04-07T07:18:00.415Z,94710.52
2019-04-07T07:21:07.131Z,94721.81
2019-04-07T07:23:39.739Z,94717.41
2019-04-07T07:26:09.833Z,94717.56
2019-04-07T07:28:42.931Z,94719.07
2019-04-07T07:31:10.748Z,94718.17
2019-04-07T07:33:42.361Z,94720.68
2019-04-07T07:36:12.403Z,94719.76
2019-04-07T07:38:54.425Z,94724.30
2019-04-07T07:41:13.091Z,94723.45
2019-04-07T07:43:42.486Z,94721.67
2019-04-07T07:46:11.964Z,94718.09
2019-04-07T07:48:41.979Z,94715.66
2019-04-07T07:51:13.846Z,94714.57
2019-04-07T07:53:43.488Z,94713.51
2019-04-07T07:56:13.606Z,94721.09
2019-04-07T07:58:43.964Z,94717.11
2019-04-07T08:01:14.884Z,94721.72
2019-04-07T08:03:44.443Z,94726.10
2019-04-07T08:06:15.029Z,94723.33
2019-04-07T08:08:47.807Z,94726.45
2019-04-07T08:11:18.723Z,94728.75
2019-04-07T08:13:48.304Z,94726.73
2019-04-07T08:16:19.102Z,94725.56
2019-04-07T08:18:49.001Z,94719.80
2019-04-07T08:21:20.160Z,94724.14
2019-04-07T08:23:49.910Z,94723.80
2019-04-07T08:26:19.450Z,94722.86
2019-04-07T08:28:49.371Z,94719.13
2019-04-07T08:31:21.473Z,94721.27
2019-04-07T08:33:51.488Z,94715.16
2019-04-07T08:36:20.951Z,94713.02
2019-04-07T08:38:53.973Z,94707.43
2019-04-07T08:41:21.595Z,94709.59
2019-04-07T08:43:55.291Z,94712.42
2019-04-07T08:46:22.787Z,94700.90
2019-04-07T08:48:54.687Z,94698.58
2019-04-07T08:51:24.949Z,94704.66
2019-04-07T08:53:55.247Z,94698.31
2019-04-07T08:56:26.554Z,94696.65
2019-04-07T08:58:55.748Z,94690.53
2019-04-07T09:01:28.698Z,94687.89
2019-04-07T09:03:56.395Z,94677.33
2019-04-07T09:06:28.483Z,94677.33
2019-04-07T09:08:57.426Z,94676.33
2019-04-07T09:11:27.103Z,94680.06
2019-04-07T09:13:57.015Z,94669.42
2019-04-07T09:16:51.816Z,94675.63
2019-04-07T09:19:39.674Z,94667.06
2019-04-07T09:22:22.667Z,94667.61
2019-04-07T09:25:09.775Z,94667.30
2019-04-07T09:27:52.437Z,94664.39
2019-04-07T09:30:28.797Z,94657.06
2019-04-07T09:33:13.682Z,94661.41
2019-04-07T09:36:04.912Z,94660.02
2019-04-07T09:38:57.010Z,94653.05
2019-04-07T09:41:47.501Z,94652.48
2019-04-07T09:44:39.019Z,94646.08
2019-04-07T09:47:26.783Z,94648.34
2019-04-07T09:50:28.553Z,94643.52
2019-04-07T09:53:15.814Z,94648.00
2019-04-07T09:56:08.875Z,94640.80
2019-04-07T09:59:18.179Z,94632.79
2019-04-07T10:02:06.256Z,94623.15
2019-04-07T10:04:42.538Z,94621.89
2019-04-07T10:07:30.483Z,94619.09
2019-04-07T10:10:25.239Z,94617.03
2019-04-07T10:13:13.606Z,94615.73
2019-04-07T10:16:02.418Z,94614.88
2019-04-07T10:18:56.516Z,94608.96
2019-04-07T10:21:36.859Z,94609.67
2019-04-07T10:24:24.631Z,94609.29
2019-04-07T10:27:02.914Z,94608.98
2019-04-07T10:29:51.426Z,94599.98
2019-04-07T10:32:48.863Z,94602.12
2019-04-07T10:35:36.016Z,94589.55
2019-04-07T10:38:21.408Z,94594.23
2019-04-07T10:41:06.711Z,94591.52
2019-04-07T10:44:04.977Z,94594.45
2019-04-07T10:46:46.054Z,94592.70
2019-04-07T10:49:32.986Z,94589.59
2019-04-07T10:52:21.447Z,94592.69
2019-04-07T10:54:56.813Z,94581.61
2019-04-07T10:57:32.295Z,94582.95
2019-04-07T11:00:19.358Z,94576.74
2019-04-07T11:02:58.640Z,94589.58
2019-04-07T11:05:41.193Z,94577.71
2019-04-07T11:08:19.129Z,94580.83
2019-04-07T11:11:09.717Z,94579.42
2019-04-07T11:13:56.956Z,94587.80
2019-04-07T11:16:44.197Z,94575.36
2019-04-07T11:19:29.822Z,94572.22
2019-04-07T11:22:22.956Z,94576.53
2019-04-07T11:25:11.922Z,94575.95
2019-04-07T11:27:58.233Z,94570.30
2019-04-07T11:30:45.514Z,94563.88
2019-04-07T11:33:34.078Z,94566.37
2019-04-07T11:36:38.345Z,94559.20
2019-04-07T11:39:38.481Z,94562.85
2019-04-07T11:42:46.071Z,94556.42
2019-04-07T11:45:37.774Z,94554.67
2019-04-07T11:48:41.570Z,94545.33
2019-04-07T11:51:19.520Z,94544.17
2019-04-07T11:53:57.720Z,94547.73
2019-04-07T11:56:54.513Z,94547.49
2019-04-07T11:59:52.379Z,94539.12
2019-04-07T12:02:37.559Z,94541.84
2019-04-07T12:05:26.852Z,94537.18
2019-04-07T12:08:25.140Z,94532.89
2019-04-07T12:11:16.699Z,94536.20
2019-04-07T12:14:16.295Z,94326.27
2019-04-07T12:17:13.795Z,94537.58
2019-04-07T12:20:12.183Z,94529.20
2019-04-07T12:22:48.801Z,94537.55
2019-04-07T12:25:34.738Z,94527.26
2019-04-07T12:28:20.389Z,94523.78
2019-04-07T12:31:10.276Z,94519.72
2019-04-07T12:33:57.453Z,94512.73
2019-04-07T12:36:44.615Z,94512.69
2019-04-07T12:39:49.529Z,94513.66
2019-04-07T12:42:39.540Z,94508.39
2019-04-07T12:45:38.469Z,94508.59
2019-04-07T12:48:19.631Z,94505.88
2019-04-07T12:51:12.206Z,94499.48
2019-04-07T12:54:08.202Z,94500.67
2019-04-07T12:56:56.226Z,94501.05
2019-04-07T12:59:47.021Z,94502.02
2019-04-07T13:02:39.215Z,94501.25
2019-04-07T13:05:28.623Z,94513.30
2019-04-07T13:08:24.603Z,94502.20
2019-04-07T13:11:07.511Z,94495.20
2019-04-07T13:13:54.889Z,94503.55
2019-04-07T13:16:31.988Z,94499.85
2019-04-07T13:19:29.672Z,94506.90
2019-04-07T13:22:32.535Z,94493.25
2019-04-07T13:25:29.999Z,94491.69
2019-04-07T13:28:18.348Z,94496.91
2019-04-07T13:31:01.790Z,94496.73
2019-04-07T13:33:59.530Z,94490.91
2019-04-07T13:36:59.058Z,94493.83
2019-04-07T13:39:41.516Z,94494.97
2019-04-07T13:42:35.647Z,94507.22
2019-04-07T13:45:21.531Z,94493.19
2019-04-07T13:48:03.420Z,94490.08
2019-04-07T13:51:05.012Z,94492.81
2019-04-07T13:53:52.323Z,94490.48
2019-04-07T13:56:32.897Z,94497.70
2019-04-07T13:59:20.410Z,94492.27
2019-04-07T14:01:55.616Z,94497.28
2019-04-07T14:04:47.829Z,94499.42
2019-04-07T14:07:31.950Z,94491.78
2019-04-07T14:10:13.276Z,94491.98
2019-04-07T14:13:03.517Z,94485.20
2019-04-07T14:15:53.509Z,94489.69
2019-04-07T14:18:54.619Z,94484.03
2019-04-07T14:21:32.477Z,94484.63
2019-04-07T14:24:12.128Z,94483.45
2019-04-07T14:27:12.526Z,94476.28
2019-04-07T14:30:06.818Z,94483.66
2019-04-07T14:32:54.639Z,94483.09
2019-04-07T14:35:45.469Z,94473.20
2019-04-07T14:38:49.355Z,94479.98
2019-04-07T14:41:43.545Z,94479.40
2019-04-07T14:44:30.408Z,94472.61
2019-04-07T14:47:06.599Z,94476.48
2019-04-07T14:50:04.807Z,94477.45
2019-04-07T14:52:49.369Z,94479.38
2019-04-07T14:55:49.620Z,94474.33
2019-04-07T14:58:38.084Z,94482.64
2019-04-07T15:01:16.615Z,94478.18
2019-04-07T15:03:46.726Z,94485.97
2019-04-07T15:06:16.740Z,94486.74
2019-04-07T15:09:06.759Z,94480.55
2019-04-07T15:12:14.710Z,94485.97
2019-04-07T15:14:34.525Z,94485.34
2019-04-07T15:17:04.686Z,94481.48
2019-04-07T15:19:34.191Z,94480.08
2019-04-07T15:22:04.560Z,94484.73
2019-04-07T15:24:35.896Z,94494.98
2019-04-07T15:27:07.123Z,94483.51
2019-04-07T15:29:40.811Z,94480.80
2019-04-07T15:32:08.741Z,94486.92
2019-04-07T15:34:41.431Z,94484.36
2019-04-07T15:37:11.432Z,94486.11
2019-04-07T15:39:41.615Z,94491.72
2019-04-07T15:42:13.460Z,94477.71
2019-04-07T15:44:42.756Z,94494.19
2019-04-07T15:47:12.938Z,94486.83
2019-04-07T15:49:42.381Z,94492.27
2019-04-07T15:52:13.129Z,94485.64
2019-04-07T15:54:43.436Z,94487.40
2019-04-07T15:57:13.204Z,94485.08
2019-04-07T15:59:43.309Z,94496.69
2019-04-07T16:02:13.368Z,94493.97
2019-04-07T16:04:42.815Z,94493.93
2019-04-07T16:07:12.286Z,94488.11
2019-04-07T16:09:50.751Z,94490.43
2019-04-07T16:12:13.466Z,94489.47
2019-04-07T16:14:46.506Z,94486.89
2019-04-07T16:17:14.173Z,94489.16
2019-04-07T16:19:47.707Z,94493.62
2019-04-07T16:22:15.468Z,94491.66
2019-04-07T16:24:45.184Z,94488.15
2019-04-07T16:27:15.115Z,94507.68
2019-04-07T16:29:46.245Z,94488.81
2019-04-07T16:32:15.819Z,94493.43
2019-04-07T16:34:45.257Z,94502.50
2019-04-07T16:37:14.694Z,94496.48
2019-04-07T16:39:44.602Z,94494.92
2019-04-07T16:42:15.410Z,94490.06
2019-04-07T16:44:44.852Z,94496.44
2019-04-07T16:47:20.939Z,94504.14
2019-04-07T16:49:48.634Z,94507.98
2019-04-07T16:52:16.615Z,94509.50
2019-04-07T16:54:46.009Z,94510.81
2019-04-07T16:57:15.463Z,94511.14
2019-04-07T16:59:45.327Z,94513.64
2019-04-07T17:02:16.964Z,94504.80
2019-04-07T17:04:45.971Z,94504.63
2019-04-07T17:07:16.878Z,94508.44
2019-04-07T17:09:46.761Z,94512.41
2019-04-07T17:12:16.859Z,94511.20
2019-04-07T17:14:47.081Z,94515.60
2019-04-07T17:17:20.303Z,94515.41
2019-04-07T17:19:47.837Z,94515.15
2019-04-07T17:22:18.108Z,94522.07
2019-04-07T17:24:47.807Z,94516.98
2019-04-07T17:27:17.282Z,94520.42
2019-04-07T17:29:49.085Z,94526.96
2019-04-07T17:32:17.855Z,94527.27
2019-04-07T17:34:47.287Z,94526.23
2019-04-07T17:37:17.419Z,94528.92
2019-04-07T17:40:11.331Z,94535.23
2019-04-07T17:42:39.825Z,94538.48
2019-04-07T17:45:28.678Z,94540.92
2019-04-07T17:48:17.163Z,94542.81
2019-04-07T17:51:20.090Z,94547.20
2019-04-07T17:54:23.559Z,94558.34
2019-04-07T17:57:10.643Z,94556.55
2019-04-07T17:59:49.296Z,94560.52
2019-04-07T18:02:43.134Z,94567.37
2019-04-07T18:05:37.591Z,94563.28
2019-04-07T18:08:25.174Z,94573.89
2019-04-07T18:11:12.988Z,94575.78
2019-04-07T18:13:57.654Z,94574.33
2019-04-07T18:16:45.070Z,94573.81
2019-04-07T18:19:34.812Z,94570.12
2019-04-07T18:22:35.970Z,94571.26
2019-04-07T18:25:26.291Z,94567.50
2019-04-07T18:28:16.356Z,94571.34
2019-04-07T18:30:57.353Z,94577.44
2019-04-07T18:33:45.500Z,94573.48
2019-04-07T18:36:35.315Z,94574.47
2019-04-07T18:39:18.191Z,94582.31
2019-04-07T18:42:10.277Z,94576.94
2019-04-07T18:45:09.888Z,94573.41
2019-04-07T18:48:02.268Z,94576.45
2019-04-07T18:50:51.273Z,94565.21
2019-04-07T18:53:57.633Z,94572.55
2019-04-07T18:56:51.007Z,94567.23
2019-04-07T18:59:35.563Z,94567.30
2019-04-07T19:02:26.960Z,94577.28
2019-04-07T19:05:13.226Z,94569.88
2019-04-07T19:08:01.567Z,94561.58
2019-04-07T19:10:51.184Z,94572.96
2019-04-07T19:13:27.278Z,94575.25
2019-04-07T19:16:24.418Z,94567.63
2019-04-07T19:19:31.002Z,94569.56
2019-04-07T19:22:28.375Z,94558.33
2019-04-07T19:25:20.280Z,94559.23
2019-04-07T19:28:11.403Z,94565.16
2019-04-07T19:30:51.513Z,94571.12
2019-04-07T19:33:31.079Z,94565.53
2019-04-07T19:36:20.413Z,94565.30
2019-04-07T19:39:24.764Z,94576.27
2019-04-07T19:42:22.009Z,94562.33
2019-04-07T19:45:22.246Z,94570.02
2019-04-07T19:48:09.028Z,94559.20
2019-04-07T19:50:46.320Z,94554.73
2019-04-07T19:53:34.514Z,94557.02
2019-04-07T19:56:29.397Z,94552.31
2019-04-07T19:59:33.802Z,94545.70
2019-04-07T20:02:15.697Z,94548.55
2019-04-07T20:05:19.682Z,94557.59
2019-04-07T20:08:08.090Z,94554.61
2019-04-07T20:10:44.641Z,94550.70
2019-04-07T20:13:31.793Z,94548.93
2019-04-07T20:16:16.410Z,94553.88
2019-04-07T20:19:04.468Z,94551.91
2019-04-07T20:21:55.141Z,94548.42
2019-04-07T20:24:42.369Z,94544.52
2019-04-07T20:27:30.675Z,94537.91
2019-04-07T20:30:25.436Z,94537.82
2019-04-07T20:33:20.690Z,94530.00
2019-04-07T20:36:22.172Z,94538.25
2019-04-07T20:39:08.203Z,94538.44
2019-04-07T20:42:15.815Z,94539.23
2019-04-07T20:45:05.682Z,94529.58
2019-04-07T20:47:40.336Z,94531.69
2019-04-07T20:50:31.143Z,94532.20
2019-04-07T20:53:35.125Z,94537.03
2019-04-07T20:56:44.413Z,94529.08
2019-04-07T20:59:33.224Z,94529.86
2019-04-07T21:02:22.861Z,94528.80
2019-04-07T21:05:13.170Z,94526.29
2019-04-07T21:08:01.069Z,94531.69
2019-04-07T21:10:58.417Z,94522.19
2019-04-07T21:14:02.874Z,94525.02
2019-04-07T21:16:59.385Z,94535.17
2019-04-07T21:19:42.321Z,94534.75
2019-04-07T21:22:31.381Z,94525.30
2019-04-07T21:25:23.761Z,94525.53
2019-04-07T21:28:00.210Z,94525.53
2019-04-07T21:30:35.646Z,94526.52
2019-04-07T21:33:23.601Z,94520.33
2019-04-07T21:36:10.415Z,94520.19
2019-04-07T21:39:16.891Z,94515.15
2019-04-07T21:42:05.182Z,94517.12
2019-04-07T21:44:54.132Z,94509.75
2019-04-07T21:47:41.163Z,94445.29
2019-04-07T21:50:41.932Z,94507.98
2019-04-07T21:53:33.480Z,94508.88
2019-04-07T21:56:15.417Z,94500.78
2019-04-07T21:59:07.430Z,94510.45
2019-04-07T22:02:02.732Z,94504.63
2019-04-07T22:04:56.592Z,94495.97
2019-04-07T22:07:47.971Z,94498.39
2019-04-07T22:10:20.317Z,94498.39
2019-04-07T22:12:48.553Z,94492.91
2019-04-07T22:15:18.113Z,94485.92
2019-04-07T22:17:47.878Z,94491.92
2019-04-07T22:20:19.004Z,94494.81
2019-04-07T22:22:49.334Z,94488.01
2019-04-07T22:25:28.333Z,94484.30
2019-04-07T22:27:57.727Z,94488.20
2019-04-07T22:30:27.094Z,94482.89
2019-04-07T22:32:56.544Z,94485.37
2019-04-07T22:35:26.595Z,94483.59
2019-04-07T22:37:56.092Z,94483.17
2019-04-07T22:40:26.635Z,94490.71
2019-04-07T22:42:56.250Z,94482.75
2019-04-07T22:45:28.913Z,94484.30
2019-04-07T22:47:57.675Z,94487.73
2019-04-07T22:50:27.298Z,93872.66
2019-04-07T22:52:57.462Z,94477.83
2019-04-07T22:55:27.093Z,94488.00
2019-04-07T22:57:56.545Z,94476.98
2019-04-07T23:00:26.994Z,94481.03
2019-04-07T23:02:57.276Z,94471.86
2019-04-07T23:05:27.726Z,94470.31
2019-04-07T23:07:57.087Z,94476.92
2019-04-07T23:10:27.479Z,94469.81
2019-04-07T23:12:57.329Z,94478.47
2019-04-07T23:15:38.615Z,94481.31
2019-04-07T23:17:59.891Z,94472.59
2019-04-07T23:20:29.383Z,94467.34
2019-04-07T23:22:58.785Z,94464.83
2019-04-07T23:25:28.183Z,94464.55
2019-04-07T23:27:58.446Z,94461.66
2019-04-07T23:30:29.104Z,94468.17
2019-04-07T23:32:58.452Z,94460.30
2019-04-07T23:35:28.700Z,94455.33
2019-04-07T23:37:58.111Z,94452.77
2019-04-07T23:40:28.087Z,94452.91
2019-04-07T23:42:57.481Z,94455.19
2019-04-07T23:45:27.429Z,94448.30
2019-04-07T23:47:56.961Z,94443.95
2019-04-07T23:50:27.245Z,94445.10
2019-04-07T23:52:58.253Z,94433.46
2019-04-07T23:55:27.650Z,94438.63
2019-04-07T23:57:57.027Z,94423.00
